createdAt,value
2019-03-26T00:24:24.460Z,99.90
2019-03-26T00:26:53.957Z,99.90
2019-03-26T00:29:22.811Z,99.90
2019-03-26T05:00:36.300Z,99.90
2019-03-26T05:03:04.827Z,99.90
2019-03-26T05:05:33.290Z,99.90
2019-03-26T05:08:01.840Z,99.90
2019-03-26T05:10:30.357Z,99.90
2019-03-26T05:12:58.923Z,99.90
2019-03-26T05:15:27.449Z,99.90
2019-03-26T05:17:56.887Z,99.90
2019-03-26T05:20:25.583Z,99.90
2019-03-26T05:22:54.056Z,99.90
2019-03-26T05:25:22.939Z,99.90
2019-03-26T05:27:54.384Z,99.90
2019-03-26T05:30:23.000Z,99.90
2019-03-26T05:32:51.500Z,99.90
2019-03-26T05:35:20.320Z,99.90
2019-03-26T05:37:48.796Z,99.90
2019-03-26T05:40:17.863Z,99.90
2019-03-26T05:42:46.336Z,99.90
2019-03-26T05:45:14.928Z,99.90
2019-03-26T05:47:45.006Z,99.90
2019-03-26T05:50:13.944Z,99.90
2019-03-26T05:52:42.406Z,99.90
2019-03-26T05:55:10.948Z,99.90
2019-03-26T05:57:39.495Z,99.90
2019-03-26T06:00:10.762Z,99.90
2019-03-26T06:02:39.227Z,99.90
2019-03-26T06:05:07.945Z,99.90
2019-03-26T06:07:36.482Z,99.90
2019-03-26T06:10:09.197Z,99.90
2019-03-26T06:12:37.758Z,99.90
2019-03-26T06:15:09.373Z,99.90
2019-03-26T06:17:37.880Z,99.90
2019-03-26T06:20:08.952Z,99.90
2019-03-26T06:22:37.528Z,99.90
2019-03-26T06:25:07.733Z,99.90
2019-03-26T06:27:36.337Z,99.90
2019-03-26T06:30:07.637Z,99.90
2019-03-26T06:32:36.226Z,99.90
2019-03-26T06:35:07.551Z,99.90
2019-03-26T06:37:36.114Z,99.90
2019-03-26T06:40:07.435Z,99.90
2019-03-26T06:42:35.997Z,99.90
2019-03-26T06:45:07.744Z,99.90
2019-03-26T06:47:36.198Z,99.90
2019-03-26T06:50:07.803Z,99.90
2019-03-26T06:52:36.262Z,99.90
2019-03-26T06:55:06.948Z,99.90
2019-03-26T06:57:36.122Z,99.90
2019-03-26T07:00:07.870Z,99.90
2019-03-26T07:02:36.475Z,99.90
2019-03-26T07:05:05.778Z,99.90
2019-03-26T07:07:34.291Z,99.90
2019-03-26T07:10:03.235Z,99.90
2019-03-26T07:12:31.744Z,99.90
2019-03-26T07:15:00.346Z,99.90
2019-03-26T07:17:29.387Z,99.90
2019-03-26T07:19:57.924Z,99.90
2019-03-26T07:22:26.525Z,99.90
2019-03-26T07:24:55.047Z,99.90
2019-03-26T07:27:23.535Z,99.90
2019-03-26T07:29:52.075Z,99.90
2019-03-26T07:32:20.554Z,99.90
2019-03-26T07:34:49.025Z,99.90
2019-03-26T07:37:17.500Z,99.90
2019-03-26T07:39:46.287Z,99.90
2019-03-26T07:42:14.790Z,99.90
2019-03-26T07:44:45.387Z,99.90
2019-03-26T07:47:13.495Z,99.90
2019-03-26T07:49:42.524Z,99.90
2019-03-26T07:52:11.069Z,99.90
2019-03-26T07:54:39.558Z,99.90
2019-03-26T07:57:08.113Z,99.90
2019-03-26T07:59:36.590Z,99.90
2019-03-26T08:02:05.149Z,99.90
2019-03-26T08:04:33.623Z,99.90
2019-03-26T08:07:02.102Z,99.90
2019-03-26T08:09:31.874Z,99.90
2019-03-26T08:12:00.405Z,99.90
2019-03-26T08:14:28.853Z,99.90
2019-03-26T08:16:57.387Z,99.90
2019-03-26T08:19:25.990Z,99.90
2019-03-26T08:21:54.542Z,99.90
2019-03-26T08:24:23.000Z,99.90
2019-03-26T08:26:52.122Z,99.90
2019-03-26T08:29:20.763Z,99.90
2019-03-26T08:31:49.220Z,99.90
2019-03-26T08:34:17.795Z,99.90
2019-03-26T08:36:46.245Z,99.90
2019-03-26T08:39:14.755Z,99.90
2019-03-26T08:41:43.229Z,99.90
2019-03-26T08:44:11.740Z,99.90
2019-03-26T08:46:40.233Z,99.90
2019-03-26T08:49:08.678Z,99.90
2019-03-26T08:51:37.151Z,99.90
2019-03-26T08:54:05.739Z,99.90
2019-03-26T08:56:34.200Z,99.90
2019-03-26T08:59:02.703Z,99.90
2019-03-26T09:01:31.233Z,99.90
2019-03-26T09:03:59.730Z,99.90
2019-03-26T09:06:28.184Z,99.90
2019-03-26T09:08:56.682Z,99.90
2019-03-26T09:11:25.200Z,99.90
2019-03-26T09:13:53.766Z,99.90
2019-03-26T09:16:22.261Z,99.90
2019-03-26T09:18:50.709Z,99.90
2019-03-26T09:21:19.192Z,99.90
2019-03-26T09:23:47.720Z,99.90
2019-03-26T09:26:16.248Z,99.90
2019-03-26T09:28:47.757Z,99.90
2019-03-26T09:31:15.059Z,99.90
2019-03-26T09:33:43.692Z,99.90
2019-03-26T09:36:12.183Z,99.90
2019-03-26T09:38:40.747Z,99.90
2019-03-26T09:41:09.276Z,99.90
2019-03-26T09:43:37.933Z,99.90
2019-03-26T09:46:06.378Z,99.90
2019-03-26T09:48:34.859Z,99.90
2019-03-26T09:51:03.312Z,99.90
2019-03-26T09:53:31.830Z,99.90
2019-03-26T09:56:00.319Z,99.90
2019-03-26T09:58:28.781Z,99.90
2019-03-26T10:00:57.280Z,99.90
2019-03-26T10:03:25.731Z,99.90
2019-03-26T10:05:55.880Z,99.90
2019-03-26T10:08:24.415Z,99.90
2019-03-26T10:10:52.873Z,99.90
2019-03-26T10:13:21.474Z,99.90
2019-03-26T10:15:50.003Z,99.90
2019-03-26T10:18:18.534Z,99.90
2019-03-26T10:20:47.014Z,99.90
2019-03-26T10:23:15.515Z,99.90
2019-03-26T10:25:43.994Z,99.90
2019-03-26T10:28:12.703Z,99.90
2019-03-26T10:30:41.654Z,99.90
2019-03-26T10:33:10.375Z,99.90
2019-03-26T10:35:38.909Z,99.90
2019-03-26T10:38:07.607Z,99.90
2019-03-26T10:40:37.988Z,99.90
2019-03-26T10:43:06.657Z,99.90
2019-03-26T10:45:35.312Z,99.90
2019-03-26T10:48:03.817Z,99.90
2019-03-26T10:50:32.258Z,99.90
2019-03-26T10:53:00.715Z,99.90
2019-03-26T10:55:29.202Z,99.90
2019-03-26T10:57:57.800Z,99.90
2019-03-26T11:00:26.724Z,99.90
2019-03-26T11:02:55.246Z,99.90
2019-03-26T11:05:23.754Z,99.90
2019-03-26T11:07:52.319Z,99.90
2019-03-26T11:10:20.823Z,99.90
2019-03-26T11:12:49.360Z,99.90
2019-03-26T11:15:17.891Z,99.90
2019-03-26T11:17:46.411Z,99.90
2019-03-26T11:20:15.431Z,99.90
2019-03-26T11:22:43.920Z,99.90
2019-03-26T11:25:12.657Z,95.30
2019-03-26T11:27:41.148Z,96.60
2019-03-26T11:30:10.287Z,91.70
2019-03-26T11:32:38.886Z,90.50
2019-03-26T11:35:08.115Z,92.50
2019-03-26T11:37:36.806Z,93.70
2019-03-26T11:40:07.623Z,94.20
2019-03-26T11:42:36.090Z,92.40
2019-03-26T11:45:07.743Z,94.10
2019-03-26T11:47:36.299Z,93.10
2019-03-26T11:50:05.846Z,95.00
2019-03-26T11:52:34.476Z,91.80
2019-03-26T11:55:03.578Z,92.10
2019-03-26T11:57:32.089Z,91.40
2019-03-26T12:00:00.598Z,92.60
2019-03-26T12:02:29.181Z,94.00
2019-03-26T12:04:57.718Z,94.00
2019-03-26T12:07:26.204Z,97.80
2019-03-26T12:09:54.668Z,97.20
2019-03-26T12:12:23.218Z,96.30
2019-03-26T12:14:51.674Z,96.10
2019-03-26T12:17:20.237Z,94.60
2019-03-26T12:19:48.708Z,93.30
2019-03-26T12:22:17.170Z,94.80
2019-03-26T12:24:47.190Z,99.00
2019-03-26T12:27:15.658Z,98.70
2019-03-26T12:29:44.141Z,97.50
2019-03-26T12:32:12.588Z,96.90
2019-03-26T12:34:41.147Z,98.00
2019-03-26T12:37:09.602Z,96.50
2019-03-26T12:39:38.080Z,96.50
2019-03-26T12:42:07.445Z,94.70
2019-03-26T12:44:35.921Z,90.90
2019-03-26T12:47:04.407Z,87.30
2019-03-26T12:49:32.897Z,79.20
2019-03-26T12:52:01.426Z,77.90
2019-03-26T12:54:29.922Z,78.30
2019-03-26T12:56:58.379Z,78.50
2019-03-26T12:59:26.940Z,76.20
2019-03-26T13:01:55.408Z,78.30
2019-03-26T13:04:23.912Z,80.90
2019-03-26T13:06:52.360Z,81.50
2019-03-26T13:09:20.848Z,77.80
2019-03-26T13:11:49.315Z,83.00
2019-03-26T13:14:17.804Z,79.60
2019-03-26T13:16:46.335Z,80.20
2019-03-26T13:19:14.830Z,81.90
2019-03-26T13:21:43.287Z,83.00
2019-03-26T13:24:11.816Z,90.10
2019-03-26T13:26:40.299Z,86.30
2019-03-26T13:29:08.892Z,90.90
2019-03-26T13:31:37.368Z,93.50
2019-03-26T13:34:05.955Z,94.50
2019-03-26T13:36:34.525Z,95.40
2019-03-26T13:39:03.765Z,94.80
2019-03-26T13:41:32.217Z,95.30
2019-03-26T13:44:00.696Z,96.50
2019-03-26T13:46:29.248Z,88.90
2019-03-26T13:48:57.713Z,85.10
2019-03-26T13:51:26.200Z,84.50
2019-03-26T13:53:54.639Z,82.80
2019-03-26T13:56:23.175Z,77.20
2019-03-26T13:58:51.649Z,76.40
2019-03-26T14:01:20.125Z,82.00
2019-03-26T14:03:48.623Z,77.60
2019-03-26T14:06:17.150Z,76.00
2019-03-26T14:08:45.694Z,78.70
2019-03-26T14:11:14.142Z,73.40
2019-03-26T14:13:42.606Z,71.90
2019-03-26T14:16:11.125Z,75.40
2019-03-26T14:18:39.676Z,75.90
2019-03-26T14:21:08.130Z,81.20
2019-03-26T14:23:36.625Z,82.20
2019-03-26T14:26:05.060Z,84.50
2019-03-26T14:28:33.590Z,83.40
2019-03-26T14:31:02.066Z,87.80
2019-03-26T14:33:30.541Z,86.20
2019-03-26T14:35:58.993Z,88.80
2019-03-26T14:38:27.521Z,91.30
2019-03-26T14:40:55.952Z,94.30
2019-03-26T14:43:24.395Z,93.60
2019-03-26T14:45:52.927Z,93.00
2019-03-26T14:48:21.607Z,92.40
2019-03-26T14:50:50.185Z,92.00
2019-03-26T14:53:18.694Z,94.70
2019-03-26T14:55:47.207Z,93.90
2019-03-26T14:58:15.667Z,92.60
2019-03-26T15:00:44.220Z,94.90
2019-03-26T15:03:12.680Z,95.20
2019-03-26T15:05:41.155Z,95.90
2019-03-26T15:08:09.674Z,97.50
2019-03-26T15:10:38.137Z,98.40
2019-03-26T15:13:06.583Z,99.90
2019-03-26T15:15:36.582Z,99.90
2019-03-26T15:18:05.339Z,98.60
2019-03-26T15:20:33.836Z,99.90
2019-03-26T15:23:02.285Z,99.40
2019-03-26T15:25:30.959Z,99.20
2019-03-26T15:28:00.959Z,99.40
2019-03-26T15:30:29.490Z,99.90
2019-03-26T15:32:57.967Z,99.40
2019-03-26T15:35:26.477Z,98.50
2019-03-26T15:37:55.028Z,99.40
2019-03-26T15:40:23.492Z,99.90
2019-03-26T15:42:51.966Z,99.90
2019-03-26T15:45:20.562Z,99.90
2019-03-26T15:47:49.034Z,99.90
2019-03-26T15:50:36.886Z,99.50
2019-03-26T15:53:05.449Z,99.90
2019-03-26T15:55:33.975Z,99.90
2019-03-26T15:58:02.439Z,99.90
2019-03-26T16:00:31.051Z,99.90
2019-03-26T16:02:59.604Z,99.90
2019-03-26T16:05:28.043Z,99.90
2019-03-26T16:07:56.503Z,99.50
2019-03-26T16:10:24.964Z,99.90
2019-03-26T16:12:53.468Z,99.90
2019-03-26T16:15:22.010Z,99.90
2019-03-26T16:17:50.549Z,99.90
2019-03-26T16:20:19.009Z,99.90
2019-03-26T16:22:47.763Z,99.90
2019-03-26T16:25:16.215Z,99.90
2019-03-26T16:27:44.703Z,99.90
2019-03-26T16:30:13.556Z,99.90
2019-03-26T16:32:42.033Z,99.90
2019-03-26T16:35:10.487Z,99.90
2019-03-26T16:37:38.945Z,99.90
2019-03-26T16:40:07.763Z,99.90
2019-03-26T16:42:36.279Z,99.90
2019-03-26T16:45:05.902Z,99.90
2019-03-26T16:47:34.346Z,99.90
2019-03-26T16:50:02.826Z,99.90
2019-03-26T16:52:32.015Z,99.90
2019-03-26T16:55:00.517Z,99.90
2019-03-26T16:57:28.988Z,99.90
2019-03-26T16:59:57.487Z,99.90
2019-03-26T17:02:25.952Z,99.90
2019-03-26T17:04:54.401Z,99.90
2019-03-26T17:07:22.888Z,99.90
2019-03-26T17:09:51.338Z,99.90
2019-03-26T17:12:19.828Z,99.90
2019-03-26T17:14:48.264Z,99.90
2019-03-26T17:17:16.725Z,99.90
2019-03-26T17:19:45.238Z,99.90
2019-03-26T17:22:13.787Z,99.90
2019-03-26T17:24:42.245Z,99.90
2019-03-26T17:27:10.784Z,99.90
2019-03-26T17:29:39.243Z,99.90
2019-03-26T17:32:07.705Z,99.90
2019-03-26T17:34:36.218Z,99.90
2019-03-26T17:37:04.710Z,99.90
2019-03-26T17:39:33.167Z,99.90
2019-03-26T17:42:01.624Z,99.90
2019-03-26T17:44:30.112Z,99.90
2019-03-26T17:46:58.624Z,99.90
2019-03-26T17:49:27.103Z,99.90
2019-03-26T17:51:55.587Z,99.90
2019-03-26T17:54:24.055Z,99.90
2019-03-26T17:56:52.537Z,99.90
2019-03-26T17:59:21.012Z,99.90
2019-03-26T18:01:49.453Z,99.90
2019-03-26T18:04:18.003Z,99.90
2019-03-26T18:06:46.464Z,99.90
2019-03-26T18:09:14.962Z,99.90
2019-03-26T18:11:43.416Z,99.90
2019-03-26T18:14:11.863Z,99.90
2019-03-26T18:16:40.361Z,99.90
2019-03-26T18:19:08.846Z,99.90
2019-03-26T18:21:50.601Z,99.90
2019-03-26T18:24:07.703Z,99.90
2019-03-26T18:26:36.271Z,99.90
2019-03-26T18:29:04.831Z,99.90
2019-03-26T18:31:33.335Z,99.90
2019-03-26T18:34:02.147Z,99.90
2019-03-26T18:36:30.629Z,99.90
2019-03-26T18:38:59.119Z,99.90
2019-03-26T18:41:27.651Z,99.90
2019-03-26T18:43:56.149Z,99.90
2019-03-26T18:46:24.612Z,99.90
2019-03-26T18:48:53.067Z,99.90
2019-03-26T18:51:21.539Z,99.90
2019-03-26T18:53:50.036Z,99.90
2019-03-26T18:56:18.509Z,99.90
2019-03-26T18:58:46.962Z,99.90
2019-03-26T19:01:15.514Z,99.90
2019-03-26T19:03:43.976Z,99.90
2019-03-26T19:06:12.455Z,99.90
2019-03-26T19:08:40.939Z,99.90
2019-03-26T19:11:09.420Z,99.90
2019-03-26T19:13:37.886Z,99.90
2019-03-26T19:16:06.437Z,99.90
2019-03-26T19:18:34.898Z,99.90
2019-03-26T19:21:03.404Z,99.90
2019-03-26T19:23:31.912Z,99.90
2019-03-26T19:26:00.385Z,99.90
2019-03-26T19:28:28.899Z,99.90
2019-03-26T19:30:57.425Z,99.90
2019-03-26T19:33:25.904Z,99.90
2019-03-26T19:35:54.386Z,99.90
2019-03-26T19:38:22.829Z,99.90
2019-03-26T19:40:51.313Z,99.90
2019-03-26T19:43:19.802Z,99.90
2019-03-26T19:45:48.258Z,99.90
2019-03-26T19:48:16.754Z,99.90
2019-03-26T19:50:45.209Z,99.90
2019-03-26T19:53:13.700Z,99.90
2019-03-26T19:55:42.161Z,99.90
2019-03-26T19:58:10.651Z,99.90
2019-03-26T20:00:39.220Z,99.90
2019-03-26T20:03:07.724Z,99.90
2019-03-26T20:05:36.197Z,99.90
2019-03-26T20:08:05.786Z,99.90
2019-03-26T20:10:34.328Z,99.90
2019-03-26T20:13:02.813Z,99.90
2019-03-26T20:15:31.252Z,99.90
2019-03-26T20:17:59.748Z,99.90
2019-03-26T20:20:28.281Z,99.90
2019-03-26T20:22:56.764Z,99.90
2019-03-26T20:25:25.335Z,99.90
2019-03-26T20:27:53.795Z,99.90
2019-03-26T20:30:22.435Z,99.90
2019-03-26T20:32:50.894Z,99.90
2019-03-26T20:35:19.466Z,99.90
2019-03-26T20:37:48.020Z,99.90
2019-03-26T20:40:17.019Z,99.90
2019-03-26T20:42:45.522Z,99.90
2019-03-26T20:45:14.678Z,99.90
2019-03-26T20:47:43.243Z,99.90
2019-03-26T20:50:12.386Z,99.90
2019-03-26T20:52:40.999Z,99.90
2019-03-26T20:55:11.415Z,99.90
2019-03-26T20:57:39.972Z,99.90
2019-03-26T21:00:11.784Z,99.90
2019-03-26T21:02:40.358Z,99.90
2019-03-26T21:05:09.213Z,99.90
2019-03-26T21:07:38.357Z,99.90
2019-03-26T21:10:07.755Z,99.90
2019-03-26T21:12:36.379Z,99.90
2019-03-26T21:15:07.658Z,99.90
2019-03-26T21:17:36.179Z,99.90
2019-03-26T21:20:07.881Z,99.90
2019-03-26T21:22:36.442Z,99.90
2019-03-26T21:25:05.407Z,99.90
2019-03-26T21:27:33.898Z,99.90
2019-03-26T21:30:10.773Z,99.90
2019-03-26T21:32:32.580Z,99.90
2019-03-26T21:35:01.041Z,99.90
2019-03-26T21:37:29.592Z,99.90
2019-03-26T21:39:58.071Z,99.90
2019-03-26T21:42:26.511Z,99.90
2019-03-26T21:44:55.007Z,99.90
2019-03-26T21:47:23.501Z,99.90
2019-03-26T21:49:51.955Z,99.90
2019-03-26T21:52:20.434Z,99.90
2019-03-26T21:54:48.938Z,99.90
2019-03-26T21:57:17.402Z,99.90
2019-03-26T21:59:45.959Z,99.90
2019-03-26T22:02:14.422Z,99.90
2019-03-26T22:04:42.921Z,99.90
2019-03-26T22:07:11.401Z,99.90
2019-03-26T22:09:39.893Z,99.90
2019-03-26T22:12:08.479Z,99.90
2019-03-26T22:14:36.972Z,99.90
2019-03-26T22:17:05.428Z,99.90
2019-03-26T22:19:33.929Z,99.90
2019-03-26T22:22:02.512Z,99.90
2019-03-26T22:24:30.974Z,99.90
2019-03-26T22:26:59.433Z,99.90
2019-03-26T22:29:27.925Z,99.90
2019-03-26T22:31:56.388Z,99.90
2019-03-26T22:34:24.874Z,99.90
2019-03-26T22:36:53.409Z,99.90
2019-03-26T22:39:21.903Z,99.90
2019-03-26T22:41:50.374Z,99.90
2019-03-26T22:44:30.738Z,99.90
2019-03-26T22:46:49.029Z,99.90
2019-03-26T22:49:17.522Z,99.90
2019-03-26T22:51:45.972Z,99.90
2019-03-26T22:54:14.452Z,99.90
2019-03-26T22:56:42.927Z,99.90
2019-03-26T22:59:11.442Z,99.90
2019-03-26T23:01:40.033Z,99.90
2019-03-26T23:04:08.499Z,99.90
2019-03-26T23:06:36.984Z,99.90
2019-03-26T23:09:06.695Z,99.90
2019-03-26T23:11:35.191Z,99.90
2019-03-26T23:14:03.724Z,99.90
2019-03-26T23:16:32.278Z,99.90
2019-03-26T23:19:00.746Z,99.90
2019-03-26T23:21:29.234Z,99.90
2019-03-26T23:23:57.709Z,99.90
2019-03-26T23:26:26.198Z,99.90
2019-03-26T23:28:54.694Z,99.90
2019-03-26T23:31:23.176Z,99.90
2019-03-26T23:33:51.737Z,99.90
2019-03-26T23:36:20.180Z,99.90
2019-03-26T23:38:48.689Z,99.90
2019-03-26T23:41:17.196Z,99.90
2019-03-26T23:43:45.675Z,99.90
2019-03-26T23:46:14.157Z,99.90
2019-03-26T23:48:42.617Z,99.90
2019-03-26T23:51:11.196Z,99.90
2019-03-26T23:53:39.749Z,99.90
2019-03-26T23:56:08.245Z,99.90
2019-03-26T23:58:36.718Z,99.90
